Accueil
METAR-TAF:

METAR-TAF

Aéroports :

Aéroport de Sylt

Westerland, Allemagne

latitude: 54-55N, longitude: 008-21E, altitude: 16 m

Observation

Le bulletin a été fait il y a 1 heure et 17 minutes, à 12:50 UTC
Vent 13 kt de est
Température 22°C
Humidité 38%
Pression 1026 hPa
Visibilité 10 km ou plus
pas de nuages en-dessous de 1500 mètres et pas de cumulonimbus.

METAR: EDXW 011250Z 10013KT CAVOK 22/07 Q1026

Heure: 16:07 (14:07 UTC)

Prévision

Le bulletin a été fait il y a 3 heures et 7 minutes, à 11:00 UTC
Prévision valable du 01 à 12 UTC au 01 à 21 UTC
Vent 9 kt de est/nord-est
Visibilité 10 km ou plus
pas de nuages en-dessous de 1500 mètres et pas de cumulonimbus.

TAF: EDXW 011100Z 0112/0121 07009KT CAVOK

Observations et prévisions météorologiques de plus de 4000 aéroports (messages METAR et TAF).

Les stations disponibles sont représentées par des disques jaunes et rouges sur la carte.

Passer la souris dessus pour voir le nom de la station.

Cliquer dessus pour voir les observations et prévisions météorologiques.

Pour changer de carte: cliquez sur les boutons verts avec une croix noire pour zoomer, sur le bouton vert avec un tiret pour effectuer un zoom arrière, ou sur les flèches vertes pour les cartes adjacentes.


METAR-TAF: